Time;durP1;ratioP1;P1;durP2;ratioP2;P2;SDS_P1;SDS_P2;PMS_P1;PMS_P2;Temp;Humidity;BMP_temperature;BMP_pressure;BME280_temperature;BME280_humidity;BME280_pressure;Samples;Min_cycle;Max_cycle;Signal;HPM_P1;HPM_P2
2023/12/17 00:02:28;;;;;;;6.50;2.00;;;;;;;;;;103825;1291;545160;-72
2023/12/17 00:06:06;;;;;;;5.70;2.10;;;;;;;;;;103786;1295;545018;-78
2023/12/17 00:09:43;;;;;;;7.10;2.10;;;;;;;;;;103800;1291;546095;-72
2023/12/17 00:13:21;;;;;;;7.10;2.40;;;;;;;;;;103734;1292;546176;-71
2023/12/17 00:16:58;;;;;;;6.10;2.20;;;;;;;;;;103774;1294;545529;-78
2023/12/17 00:20:32;;;;;;;6.40;2.30;;;;;;;;;;103990;1290;545774;-76
2023/12/17 00:24:13;;;;;;;10.00;3.50;;;;;;;;;;103810;1292;545999;-73
2023/12/17 00:27:50;;;;;;;8.20;4.10;;;;;;;;;;103931;1290;544983;-72
2023/12/17 00:31:28;;;;;;;11.30;5.60;;;;;;;;;;104151;1295;545143;-72
2023/12/17 00:35:06;;;;;;;10.40;5.90;;;;;;;;;;103830;1289;544940;-71
2023/12/17 00:38:43;;;;;;;10.50;5.00;;;;;;;;;;103731;1291;545427;-72
2023/12/17 00:42:20;;;;;;;10.80;5.30;;;;;;;;;;104380;1283;545456;-72
2023/12/17 00:45:54;;;;;;;10.20;5.50;;;;;;;;;;103905;1292;545821;-75
2023/12/17 00:49:35;;;;;;;10.70;5.60;;;;;;;;;;103936;1289;544825;-76
2023/12/17 00:53:13;;;;;;;11.10;5.90;;;;;;;;;;103865;1290;544668;-78
2023/12/17 00:56:51;;;;;;;11.60;7.00;;;;;;;;;;103891;1294;544948;-72
2023/12/17 01:00:28;;;;;;;12.50;7.10;;;;;;;;;;103919;1290;545277;-71
2023/12/17 01:04:05;;;;;;;12.10;7.50;;;;;;;;;;104274;1286;545905;-71
2023/12/17 01:07:43;;;;;;;14.40;8.40;;;;;;;;;;104369;1286;544838;-75
2023/12/17 01:11:20;;;;;;;12.80;7.20;;;;;;;;;;103801;1291;544945;-70
2023/12/17 01:15:00;;;;;;;11.80;6.80;;;;;;;;;;103802;1290;545088;-72
2023/12/17 01:18:35;;;;;;;13.90;8.40;;;;;;;;;;104028;1287;545208;-71
2023/12/17 01:22:12;;;;;;;12.40;8.30;;;;;;;;;;103829;1292;544972;-73
2023/12/17 01:25:50;;;;;;;10.70;7.00;;;;;;;;;;104516;1283;545517;-71
2023/12/17 01:29:23;;;;;;;12.00;7.60;;;;;;;;;;103889;1299;545819;-80
2023/12/17 01:33:05;;;;;;;15.60;8.60;;;;;;;;;;103794;1290;544758;-71
2023/12/17 01:36:42;;;;;;;17.20;11.00;;;;;;;;;;103864;1289;544957;-71
2023/12/17 01:40:20;;;;;;;13.50;8.00;;;;;;;;;;103732;1297;545319;-74
2023/12/17 01:43:57;;;;;;;12.00;6.40;;;;;;;;;;103807;1290;545918;-71
2023/12/17 01:47:35;;;;;;;11.60;6.70;;;;;;;;;;104207;1289;544877;-74
2023/12/17 01:51:12;;;;;;;10.80;6.60;;;;;;;;;;103977;1289;545327;-70
2023/12/17 01:54:50;;;;;;;11.80;7.20;;;;;;;;;;104066;1289;545680;-75
2023/12/17 01:58:27;;;;;;;12.20;7.30;;;;;;;;;;104097;1289;545618;-77
2023/12/17 02:02:04;;;;;;;13.60;7.60;;;;;;;;;;103760;1292;544779;-70
2023/12/17 02:05:41;;;;;;;11.90;7.20;;;;;;;;;;103943;1292;544937;-81
2023/12/17 02:09:21;;;;;;;12.90;8.60;;;;;;;;;;104257;1286;545550;-71
2023/12/17 02:12:59;;;;;;;13.60;8.70;;;;;;;;;;103823;1300;544798;-71
2023/12/17 02:16:36;;;;;;;12.90;7.90;;;;;;;;;;103815;1298;545558;-71
2023/12/17 02:20:14;;;;;;;12.60;7.50;;;;;;;;;;104612;1281;544981;-71
2023/12/17 02:23:52;;;;;;;13.30;7.60;;;;;;;;;;103894;1295;545076;-72
2023/12/17 02:27:31;;;;;;;13.30;8.30;;;;;;;;;;103882;1291;545135;-72
2023/12/17 02:31:08;;;;;;;13.00;7.80;;;;;;;;;;103865;1289;545539;-72
2023/12/17 02:34:43;;;;;;;11.80;7.10;;;;;;;;;;103801;1290;545021;-75
2023/12/17 02:38:21;;;;;;;9.10;5.20;;;;;;;;;;103960;1289;545450;-72
2023/12/17 02:41:58;;;;;;;7.60;4.40;;;;;;;;;;103886;1289;545371;-71
2023/12/17 02:45:35;;;;;;;8.40;4.40;;;;;;;;;;103752;1291;545808;-72
2023/12/17 02:49:13;;;;;;;8.60;4.40;;;;;;;;;;103830;1291;545185;-76
2023/12/17 02:52:50;;;;;;;9.40;4.60;;;;;;;;;;103808;1291;546227;-78
2023/12/17 02:56:28;;;;;;;7.70;4.20;;;;;;;;;;103814;1297;544963;-72
2023/12/17 03:00:06;;;;;;;9.10;4.90;;;;;;;;;;103950;1295;544877;-74
2023/12/17 03:03:43;;;;;;;9.50;4.60;;;;;;;;;;103829;1295;544784;-71
2023/12/17 03:07:21;;;;;;;8.20;3.90;;;;;;;;;;104272;1285;545553;-72
2023/12/17 03:10:58;;;;;;;9.40;5.10;;;;;;;;;;104174;1286;545659;-71
2023/12/17 03:14:35;;;;;;;9.30;5.20;;;;;;;;;;103767;1292;544874;-78
2023/12/17 03:18:14;;;;;;;9.10;5.50;;;;;;;;;;103992;1289;544858;-72
2023/12/17 03:21:50;;;;;;;10.70;5.40;;;;;;;;;;104229;1285;545580;-73
2023/12/17 03:25:24;;;;;;;9.50;5.30;;;;;;;;;;103974;1289;545076;-81
2023/12/17 03:29:05;;;;;;;10.30;6.10;;;;;;;;;;103806;1289;545607;-73
2023/12/17 03:32:43;;;;;;;10.10;5.60;;;;;;;;;;103987;1292;545709;-72
2023/12/17 03:36:20;;;;;;;8.90;5.00;;;;;;;;;;104522;1283;544910;-70
2023/12/17 03:39:58;;;;;;;10.10;5.90;;;;;;;;;;104049;1290;545974;-78
2023/12/17 03:43:35;;;;;;;10.40;6.10;;;;;;;;;;103956;1290;545516;-72
2023/12/17 03:47:13;;;;;;;12.30;6.30;;;;;;;;;;103874;1295;545520;-77
2023/12/17 03:50:51;;;;;;;8.80;5.30;;;;;;;;;;103871;1289;545794;-72
2023/12/17 03:54:27;;;;;;;11.90;6.10;;;;;;;;;;103844;1289;544749;-73
2023/12/17 03:58:05;;;;;;;12.50;6.70;;;;;;;;;;104012;1289;544928;-72
2023/12/17 04:01:46;;;;;;;12.00;6.90;;;;;;;;;;104164;1292;545134;-72
2023/12/17 04:05:25;;;;;;;12.80;7.30;;;;;;;;;;104538;1283;545240;-72
2023/12/17 04:08:57;;;;;;;11.00;6.30;;;;;;;;;;104143;1288;545150;-77
2023/12/17 04:12:35;;;;;;;11.50;6.60;;;;;;;;;;103932;1297;545153;-71
2023/12/17 04:16:13;;;;;;;12.10;7.10;;;;;;;;;;103774;1291;544772;-72
2023/12/17 04:19:50;;;;;;;12.30;7.80;;;;;;;;;;103922;1291;545186;-73
2023/12/17 04:23:27;;;;;;;10.40;6.60;;;;;;;;;;103725;1292;544861;-76
2023/12/17 04:27:06;;;;;;;10.90;6.70;;;;;;;;;;103834;1292;544703;-71
2023/12/17 04:30:42;;;;;;;10.20;5.80;;;;;;;;;;103854;1289;545358;-77
2023/12/17 04:34:20;;;;;;;11.70;6.60;;;;;;;;;;103777;1292;544978;-72
2023/12/17 04:37:57;;;;;;;12.90;7.00;;;;;;;;;;103886;1292;545442;-71
2023/12/17 04:41:35;;;;;;;12.40;7.80;;;;;;;;;;104084;1291;544929;-75
2023/12/17 04:45:18;;;;;;;12.40;7.40;;;;;;;;;;103681;1291;544980;-72
2023/12/17 04:48:49;;;;;;;11.30;7.10;;;;;;;;;;103893;1289;544733;-72
2023/12/17 04:52:27;;;;;;;14.20;8.00;;;;;;;;;;103882;1291;545041;-72
2023/12/17 04:56:04;;;;;;;14.70;8.90;;;;;;;;;;103715;1291;545778;-72
2023/12/17 04:59:42;;;;;;;14.40;8.10;;;;;;;;;;103849;1290;545863;-72
2023/12/17 05:03:19;;;;;;;13.30;7.60;;;;;;;;;;103874;1290;544987;-73
2023/12/17 05:06:56;;;;;;;13.90;7.60;;;;;;;;;;104369;1283;544817;-73
2023/12/17 05:10:35;;;;;;;13.30;7.70;;;;;;;;;;104301;1286;545990;-71
2023/12/17 05:14:12;;;;;;;13.70;9.20;;;;;;;;;;103854;1291;544817;-73
2023/12/17 05:17:49;;;;;;;16.10;9.40;;;;;;;;;;104569;1286;544999;-73
2023/12/17 05:21:23;;;;;;;13.40;8.60;;;;;;;;;;103895;1292;545700;-74
2023/12/17 05:25:04;;;;;;;12.50;7.00;;;;;;;;;;104005;1289;545338;-73
2023/12/17 05:28:41;;;;;;;11.70;7.50;;;;;;;;;;103903;1292;544796;-76
2023/12/17 05:32:19;;;;;;;12.60;7.60;;;;;;;;;;103921;1292;545064;-72
2023/12/17 05:35:56;;;;;;;13.10;7.70;;;;;;;;;;103946;1289;544770;-75
2023/12/17 05:39:34;;;;;;;16.40;9.30;;;;;;;;;;103969;1289;544754;-72
2023/12/17 05:43:12;;;;;;;12.90;6.90;;;;;;;;;;103844;1295;546043;-72
2023/12/17 05:46:48;;;;;;;13.90;7.80;;;;;;;;;;103826;1289;544857;-72
2023/12/17 05:50:26;;;;;;;12.50;8.00;;;;;;;;;;104245;1286;545057;-71
2023/12/17 05:54:07;;;;;;;13.50;7.90;;;;;;;;;;103940;1289;545805;-74
2023/12/17 05:57:42;;;;;;;14.00;8.60;;;;;;;;;;103896;1291;544808;-72
2023/12/17 06:01:19;;;;;;;18.00;9.00;;;;;;;;;;103862;1295;545222;-72
2023/12/17 06:04:56;;;;;;;22.50;10.60;;;;;;;;;;103875;1291;544741;-72
2023/12/17 06:08:34;;;;;;;20.00;10.40;;;;;;;;;;103786;1295;545235;-71
2023/12/17 06:12:11;;;;;;;13.40;8.40;;;;;;;;;;103928;1293;544750;-72
2023/12/17 06:15:48;;;;;;;12.70;6.50;;;;;;;;;;103823;1291;544791;-75
2023/12/17 06:19:26;;;;;;;10.40;6.00;;;;;;;;;;103876;1289;545462;-74
2023/12/17 06:23:04;;;;;;;11.60;6.20;;;;;;;;;;103866;1290;544773;-74
2023/12/17 06:26:44;;;;;;;11.80;6.70;;;;;;;;;;104012;1289;546387;-73
2023/12/17 06:30:18;;;;;;;12.90;6.60;;;;;;;;;;104112;1289;544821;-72
2023/12/17 06:33:56;;;;;;;12.10;5.80;;;;;;;;;;104204;1283;545598;-73
2023/12/17 06:37:33;;;;;;;12.30;6.80;;;;;;;;;;104519;1283;545036;-76
2023/12/17 06:41:11;;;;;;;11.70;6.90;;;;;;;;;;104112;1292;544985;-77
2023/12/17 06:44:48;;;;;;;15.10;7.40;;;;;;;;;;104403;1285;545010;-73
2023/12/17 06:48:22;;;;;;;14.20;7.10;;;;;;;;;;103942;1289;545069;-74
2023/12/17 06:52:03;;;;;;;12.80;7.50;;;;;;;;;;103749;1295;545353;-75
2023/12/17 06:55:48;;;;;;;14.10;8.30;;;;;;;;;;103842;1293;545586;-77
2023/12/17 06:59:14;;;;;;;13.80;8.40;;;;;;;;;;103858;1291;545041;-82
2023/12/17 07:03:18;;;;;;;13.40;8.20;;;;;;;;;;103899;1289;548200;-75
2023/12/17 07:06:33;;;;;;;14.70;7.70;;;;;;;;;;103890;1290;545924;-70
2023/12/17 07:10:12;;;;;;;19.60;11.70;;;;;;;;;;103823;1294;545574;-78
2023/12/17 07:13:49;;;;;;;15.90;9.80;;;;;;;;;;103970;1289;545067;-77
2023/12/17 07:17:25;;;;;;;15.10;8.60;;;;;;;;;;103913;1289;545253;-77
2023/12/17 07:21:03;;;;;;;13.20;7.90;;;;;;;;;;104115;1291;545534;-76
2023/12/17 07:24:40;;;;;;;14.90;8.80;;;;;;;;;;103716;1291;544765;-76
2023/12/17 07:28:18;;;;;;;14.20;9.70;;;;;;;;;;103880;1289;544786;-74
2023/12/17 07:31:51;;;;;;;16.30;11.40;;;;;;;;;;103986;1290;545716;-80
2023/12/17 07:35:32;;;;;;;18.50;14.00;;;;;;;;;;103819;1289;545504;-71
2023/12/17 07:39:10;;;;;;;18.50;13.30;;;;;;;;;;103819;1290;545005;-71
2023/12/17 07:42:51;;;;;;;20.60;15.10;;;;;;;;;;103838;1289;545189;-74
2023/12/17 07:46:57;;;;;;;28.50;19.30;;;;;;;;;;104046;1289;544968;-71
2023/12/17 07:50:03;;;;;;;26.00;17.80;;;;;;;;;;103834;1289;545566;-71
2023/12/17 07:53:40;;;;;;;24.80;15.80;;;;;;;;;;103770;1292;545019;-76
2023/12/17 07:57:17;;;;;;;25.40;15.70;;;;;;;;;;103870;1291;545062;-72
2023/12/17 08:00:55;;;;;;;20.40;12.90;;;;;;;;;;103726;1294;544858;-78
2023/12/17 08:04:35;;;;;;;18.50;11.30;;;;;;;;;;103978;1292;544934;-76
2023/12/17 08:08:10;;;;;;;17.00;10.60;;;;;;;;;;104059;1288;544867;-71
2023/12/17 08:11:47;;;;;;;16.90;8.80;;;;;;;;;;103874;1295;545653;-73
2023/12/17 08:15:21;;;;;;;25.50;9.20;;;;;;;;;;103857;1290;544917;-72
2023/12/17 08:19:03;;;;;;;15.70;7.70;;;;;;;;;;103748;1291;545000;-71
2023/12/17 08:22:40;;;;;;;18.50;7.80;;;;;;;;;;103768;1295;544814;-72
2023/12/17 08:26:20;;;;;;;14.70;6.40;;;;;;;;;;103782;1292;544795;-77
2023/12/17 08:29:55;;;;;;;17.50;7.20;;;;;;;;;;104226;1289;544750;-72
2023/12/17 08:33:33;;;;;;;17.20;6.90;;;;;;;;;;103891;1289;544961;-75
2023/12/17 08:37:09;;;;;;;16.30;8.70;;;;;;;;;;104070;1288;545069;-78
2023/12/17 08:40:47;;;;;;;12.90;7.40;;;;;;;;;;104009;1295;544723;-71
2023/12/17 08:44:25;;;;;;;33.90;22.20;;;;;;;;;;103998;1289;544835;-75
2023/12/17 08:48:03;;;;;;;39.40;22.60;;;;;;;;;;104430;1286;544909;-72
2023/12/17 08:51:40;;;;;;;75.20;35.60;;;;;;;;;;103875;1303;545375;-71
2023/12/17 08:55:17;;;;;;;27.00;12.40;;;;;;;;;;103976;1294;546160;-73
2023/12/17 08:58:51;;;;;;;9.70;3.90;;;;;;;;;;103963;1289;544722;-78
2023/12/17 09:02:52;;;;;;;15.20;6.60;;;;;;;;;;103633;1305;548012;-72
2023/12/17 09:06:12;;;;;;;10.40;3.70;;;;;;;;;;103903;1288;544780;-72
2023/12/17 09:09:47;;;;;;;8.60;3.50;;;;;;;;;;104222;1289;545929;-72
2023/12/17 09:13:30;;;;;;;8.30;2.50;;;;;;;;;;103648;1292;545129;-71
2023/12/17 09:17:02;;;;;;;8.10;3.00;;;;;;;;;;103900;1289;544860;-72
2023/12/17 09:20:38;;;;;;;7.70;2.90;;;;;;;;;;103879;1294;545070;-72
2023/12/17 09:24:16;;;;;;;17.50;9.10;;;;;;;;;;103794;1295;545921;-78
2023/12/17 09:27:54;;;;;;;15.50;6.50;;;;;;;;;;103933;1290;545742;-73
2023/12/17 09:31:31;;;;;;;12.90;6.60;;;;;;;;;;103884;1295;545507;-78
2023/12/17 09:35:10;;;;;;;15.40;8.00;;;;;;;;;;104631;1282;545007;-77
2023/12/17 09:38:46;;;;;;;12.10;6.40;;;;;;;;;;103964;1289;544880;-70
2023/12/17 09:42:24;;;;;;;17.60;8.80;;;;;;;;;;103952;1291;544778;-73
2023/12/17 09:46:01;;;;;;;15.30;8.10;;;;;;;;;;103788;1292;545188;-72
2023/12/17 09:49:39;;;;;;;16.00;7.00;;;;;;;;;;103880;1289;545465;-78
2023/12/17 09:53:12;;;;;;;11.00;5.70;;;;;;;;;;104017;1289;545404;-75
2023/12/17 09:56:56;;;;;;;11.20;5.30;;;;;;;;;;103970;1289;544649;-79
2023/12/17 10:00:31;;;;;;;11.30;5.60;;;;;;;;;;103894;1295;545401;-71
2023/12/17 10:04:04;;;;;;;11.60;5.10;;;;;;;;;;103955;1290;545013;-71
2023/12/17 10:07:46;;;;;;;10.80;4.70;;;;;;;;;;103838;1289;544769;-74
2023/12/17 10:11:22;;;;;;;8.30;3.60;;;;;;;;;;103932;1302;546472;-81
2023/12/17 10:15:02;;;;;;;12.00;4.30;;;;;;;;;;103912;1291;545497;-71
2023/12/17 10:18:40;;;;;;;22.60;13.90;;;;;;;;;;104480;1292;545682;-72
2023/12/17 10:22:23;;;;;;;31.30;16.10;;;;;;;;;;103717;1305;544861;-71
2023/12/17 10:26:03;;;;;;;24.20;13.10;;;;;;;;;;103809;1291;544828;-76
2023/12/17 10:29:29;;;;;;;25.30;14.70;;;;;;;;;;103912;1292;545928;-78
2023/12/17 10:33:14;;;;;;;19.50;9.90;;;;;;;;;;103875;1292;544984;-72
2023/12/17 10:36:48;;;;;;;19.50;10.10;;;;;;;;;;103733;1291;545128;-73
2023/12/17 10:40:21;;;;;;;19.80;10.90;;;;;;;;;;104002;1289;544989;-82
2023/12/17 10:44:03;;;;;;;17.60;8.50;;;;;;;;;;103720;1295;545929;-75
2023/12/17 10:47:40;;;;;;;18.00;10.30;;;;;;;;;;103895;1290;544995;-72
2023/12/17 10:51:18;;;;;;;16.90;8.00;;;;;;;;;;104266;1286;545405;-76
2023/12/17 10:54:55;;;;;;;15.10;8.20;;;;;;;;;;103782;1291;544758;-73
2023/12/17 10:58:33;;;;;;;19.40;10.50;;;;;;;;;;103851;1292;544998;-77
2023/12/17 11:02:11;;;;;;;15.90;8.60;;;;;;;;;;103859;1292;545073;-77
2023/12/17 11:05:56;;;;;;;15.30;8.90;;;;;;;;;;103852;1294;545272;-71
2023/12/17 11:09:24;;;;;;;13.90;8.00;;;;;;;;;;103919;1291;545255;-74
2023/12/17 11:13:02;;;;;;;14.20;8.10;;;;;;;;;;103859;1290;544825;-76
2023/12/17 11:16:36;;;;;;;18.10;10.70;;;;;;;;;;103993;1294;545380;-82
2023/12/17 11:20:17;;;;;;;17.80;10.20;;;;;;;;;;103849;1289;547149;-76
2023/12/17 11:23:55;;;;;;;17.70;10.80;;;;;;;;;;103859;1291;544830;-72
2023/12/17 11:27:32;;;;;;;19.70;10.80;;;;;;;;;;103796;1291;545094;-72
2023/12/17 11:31:10;;;;;;;16.60;9.80;;;;;;;;;;103883;1289;545579;-72
2023/12/17 11:34:49;;;;;;;15.10;8.90;;;;;;;;;;103869;1290;544886;-72
2023/12/17 11:38:25;;;;;;;16.30;9.90;;;;;;;;;;103959;1290;545458;-72
2023/12/17 11:42:02;;;;;;;21.00;12.00;;;;;;;;;;104012;1289;545443;-75
2023/12/17 11:45:47;;;;;;;21.60;12.70;;;;;;;;;;103852;1290;544847;-72
2023/12/17 11:49:23;;;;;;;19.30;12.90;;;;;;;;;;103895;1289;545022;-72
2023/12/17 11:53:00;;;;;;;26.20;14.60;;;;;;;;;;104337;1286;545629;-72
2023/12/17 11:56:32;;;;;;;23.90;13.40;;;;;;;;;;103780;1293;545031;-71
2023/12/17 12:00:10;;;;;;;20.90;12.10;;;;;;;;;;103974;1289;544969;-79
2023/12/17 12:03:46;;;;;;;21.70;12.80;;;;;;;;;;103935;1292;544744;-70
2023/12/17 12:07:24;;;;;;;19.60;11.20;;;;;;;;;;103823;1291;544778;-71
2023/12/17 12:11:02;;;;;;;20.00;11.90;;;;;;;;;;103892;1289;544958;-70
2023/12/17 12:14:46;;;;;;;18.70;11.00;;;;;;;;;;103733;1292;545308;-70
2023/12/17 12:18:20;;;;;;;19.40;10.50;;;;;;;;;;103724;1291;546232;-72
2023/12/17 12:21:54;;;;;;;16.20;9.50;;;;;;;;;;103844;1289;545476;-72
2023/12/17 12:25:31;;;;;;;17.10;10.50;;;;;;;;;;104478;1285;545027;-71
2023/12/17 12:29:09;;;;;;;17.10;10.80;;;;;;;;;;103929;1291;545092;-73
2023/12/17 12:32:46;;;;;;;16.80;9.90;;;;;;;;;;103863;1289;544872;-71
2023/12/17 12:36:24;;;;;;;18.60;10.90;;;;;;;;;;103862;1302;544810;-71
2023/12/17 12:40:02;;;;;;;23.30;15.00;;;;;;;;;;103797;1291;545477;-72
2023/12/17 12:43:42;;;;;;;22.00;13.60;;;;;;;;;;103869;1289;545406;-72
2023/12/17 12:47:16;;;;;;;20.80;13.40;;;;;;;;;;104343;1285;545003;-71
2023/12/17 12:50:53;;;;;;;21.30;11.70;;;;;;;;;;103895;1296;544989;-72
2023/12/17 12:54:30;;;;;;;20.60;11.50;;;;;;;;;;103869;1290;546149;-77
2023/12/17 12:58:04;;;;;;;20.10;10.90;;;;;;;;;;103803;1291;544777;-80
2023/12/17 13:01:45;;;;;;;20.00;9.10;;;;;;;;;;103894;1289;544936;-72
2023/12/17 13:05:23;;;;;;;18.30;10.30;;;;;;;;;;103918;1295;545958;-76
2023/12/17 13:09:01;;;;;;;16.80;9.80;;;;;;;;;;103727;1295;545130;-70
2023/12/17 13:12:38;;;;;;;15.30;9.20;;;;;;;;;;103919;1292;544848;-71
2023/12/17 13:16:12;;;;;;;14.90;9.70;;;;;;;;;;104015;1295;545137;-70
2023/12/17 13:19:53;;;;;;;17.50;11.30;;;;;;;;;;103902;1291;545116;-71
2023/12/17 13:23:30;;;;;;;21.60;12.50;;;;;;;;;;103809;1291;545483;-70
2023/12/17 13:27:08;;;;;;;21.40;12.80;;;;;;;;;;104499;1288;545098;-72
2023/12/17 13:30:45;;;;;;;16.70;9.50;;;;;;;;;;103972;1289;545019;-71
2023/12/17 13:34:23;;;;;;;16.60;9.70;;;;;;;;;;103953;1289;545013;-73
2023/12/17 13:38:00;;;;;;;19.30;10.70;;;;;;;;;;104076;1289;544765;-78
2023/12/17 13:41:38;;;;;;;16.80;10.20;;;;;;;;;;103896;1291;545209;-76
2023/12/17 13:45:15;;;;;;;17.70;10.50;;;;;;;;;;103888;1289;545131;-75
2023/12/17 13:48:53;;;;;;;18.20;10.20;;;;;;;;;;104081;1291;545640;-76
2023/12/17 13:52:30;;;;;;;17.50;10.00;;;;;;;;;;104437;1283;545533;-72
2023/12/17 13:56:08;;;;;;;23.20;11.40;;;;;;;;;;103963;1296;545011;-75
2023/12/17 13:59:48;;;;;;;35.20;18.10;;;;;;;;;;103807;1292;545721;-71
2023/12/17 14:03:26;;;;;;;54.90;29.00;;;;;;;;;;103825;1292;544942;-77
2023/12/17 14:07:00;;;;;;;69.70;40.90;;;;;;;;;;103899;1291;545344;-69
2023/12/17 14:10:33;;;;;;;38.50;21.50;;;;;;;;;;103883;1292;546107;-80
2023/12/17 14:14:15;;;;;;;35.60;18.30;;;;;;;;;;103824;1292;545642;-73
2023/12/17 14:17:53;;;;;;;40.30;22.30;;;;;;;;;;104401;1283;545332;-71
2023/12/17 14:21:32;;;;;;;27.40;16.00;;;;;;;;;;103815;1291;544887;-71
2023/12/17 14:25:08;;;;;;;23.60;16.00;;;;;;;;;;103960;1295;545063;-76
2023/12/17 14:28:47;;;;;;;24.70;15.90;;;;;;;;;;103815;1292;545631;-77
2023/12/17 14:32:25;;;;;;;21.10;12.30;;;;;;;;;;104005;1289;545572;-71
2023/12/17 14:36:03;;;;;;;25.70;14.80;;;;;;;;;;103820;1295;544968;-71
2023/12/17 14:39:40;;;;;;;31.50;17.60;;;;;;;;;;103955;1289;545437;-76
2023/12/17 14:43:17;;;;;;;28.90;14.60;;;;;;;;;;103720;1295;545600;-75
2023/12/17 14:46:55;;;;;;;25.60;12.40;;;;;;;;;;103819;1292;544932;-71
2023/12/17 14:50:33;;;;;;;21.30;11.10;;;;;;;;;;104056;1290;545411;-74
2023/12/17 14:54:10;;;;;;;21.00;11.50;;;;;;;;;;103787;1290;545152;-72
2023/12/17 14:57:47;;;;;;;24.50;14.50;;;;;;;;;;103905;1289;544974;-72
2023/12/17 15:01:25;;;;;;;23.00;12.70;;;;;;;;;;103758;1291;545613;-70
2023/12/17 15:05:02;;;;;;;24.20;13.40;;;;;;;;;;103829;1291;545612;-71
2023/12/17 15:08:40;;;;;;;28.60;16.60;;;;;;;;;;103853;1292;544788;-70
2023/12/17 15:12:17;;;;;;;30.30;17.10;;;;;;;;;;103845;1289;544734;-71
2023/12/17 15:15:37;;;;;;;33.10;18.40;;;;;;;;;;104558;1286;545458;-72
2023/12/17 15:19:15;;;;;;;33.40;18.60;;;;;;;;;;103868;1291;544944;-74
2023/12/17 15:22:52;;;;;;;31.50;17.30;;;;;;;;;;104042;1289;544736;-73
2023/12/17 15:26:30;;;;;;;29.20;16.20;;;;;;;;;;104187;1289;545723;-75
2023/12/17 15:30:08;;;;;;;25.70;15.00;;;;;;;;;;103801;1291;544797;-76
2023/12/17 15:33:45;;;;;;;17.20;10.90;;;;;;;;;;103809;1291;545077;-77
2023/12/17 15:37:22;;;;;;;28.00;18.90;;;;;;;;;;103738;1291;545408;-72
2023/12/17 15:41:00;;;;;;;24.60;15.30;;;;;;;;;;103865;1295;544944;-72
2023/12/17 15:44:38;;;;;;;28.00;18.00;;;;;;;;;;103820;1301;545184;-71
2023/12/17 15:48:15;;;;;;;22.40;14.20;;;;;;;;;;103870;1297;544900;-78
2023/12/17 15:51:52;;;;;;;31.00;20.10;;;;;;;;;;103840;1292;545421;-73
2023/12/17 15:55:26;;;;;;;19.20;10.40;;;;;;;;;;103979;1292;546306;-71
2023/12/17 15:59:07;;;;;;;35.20;20.50;;;;;;;;;;104392;1288;545774;-71
2023/12/17 16:02:46;;;;;;;28.70;17.90;;;;;;;;;;104926;1289;544939;-72
2023/12/17 16:06:22;;;;;;;22.90;12.50;;;;;;;;;;104362;1295;545186;-75
2023/12/17 16:10:00;;;;;;;19.50;11.70;;;;;;;;;;104090;1288;544984;-76
2023/12/17 16:13:37;;;;;;;29.30;15.20;;;;;;;;;;103979;1289;544954;-75
2023/12/17 16:17:10;;;;;;;38.90;17.80;;;;;;;;;;104011;1292;544812;-71
2023/12/17 16:20:52;;;;;;;40.40;17.90;;;;;;;;;;103960;1289;545290;-75
2023/12/17 16:24:30;;;;;;;41.60;18.30;;;;;;;;;;103900;1291;545005;-72
2023/12/17 16:28:03;;;;;;;31.20;15.50;;;;;;;;;;104097;1293;545380;-75
2023/12/17 16:31:45;;;;;;;23.80;11.50;;;;;;;;;;103984;1289;545367;-70
2023/12/17 16:35:22;;;;;;;26.10;12.70;;;;;;;;;;103860;1304;544888;-76
2023/12/17 16:38:56;;;;;;;24.80;13.00;;;;;;;;;;104049;1289;545047;-71
2023/12/17 16:42:37;;;;;;;33.80;16.60;;;;;;;;;;103858;1289;545084;-73
2023/12/17 16:46:14;;;;;;;37.70;16.00;;;;;;;;;;103842;1291;544870;-70
2023/12/17 16:49:48;;;;;;;28.60;13.60;;;;;;;;;;104223;1288;545926;-69
2023/12/17 16:53:29;;;;;;;24.30;12.20;;;;;;;;;;103802;1289;545651;-75
2023/12/17 16:57:07;;;;;;;20.90;11.30;;;;;;;;;;103864;1292;545475;-75
2023/12/17 17:00:44;;;;;;;23.30;13.40;;;;;;;;;;103854;1290;544836;-73
2023/12/17 17:04:22;;;;;;;23.60;12.70;;;;;;;;;;103958;1293;544899;-78
2023/12/17 17:07:59;;;;;;;22.30;11.70;;;;;;;;;;103733;1291;544786;-70
2023/12/17 17:11:36;;;;;;;20.50;10.80;;;;;;;;;;104115;1289;545412;-69
2023/12/17 17:15:14;;;;;;;18.60;10.20;;;;;;;;;;103839;1292;544861;-70
2023/12/17 17:18:52;;;;;;;27.00;14.00;;;;;;;;;;103982;1292;544806;-71
2023/12/17 17:22:29;;;;;;;17.50;9.90;;;;;;;;;;103966;1289;545371;-71
2023/12/17 17:26:02;;;;;;;18.30;9.30;;;;;;;;;;104029;1289;544910;-70
2023/12/17 17:29:40;;;;;;;24.40;14.40;;;;;;;;;;104070;1290;544782;-77
2023/12/17 17:33:21;;;;;;;18.30;10.40;;;;;;;;;;103804;1289;545538;-71
2023/12/17 17:36:58;;;;;;;23.00;12.30;;;;;;;;;;103880;1295;545084;-71
2023/12/17 17:40:33;;;;;;;21.10;12.20;;;;;;;;;;103886;1292;545036;-72
2023/12/17 17:44:15;;;;;;;23.90;11.60;;;;;;;;;;103842;1292;545065;-70
2023/12/17 17:47:51;;;;;;;22.80;11.90;;;;;;;;;;103893;1295;545264;-71
2023/12/17 17:51:29;;;;;;;34.50;18.60;;;;;;;;;;104080;1288;545363;-71
2023/12/17 17:55:06;;;;;;;39.80;20.20;;;;;;;;;;103874;1291;545756;-72
2023/12/17 17:59:03;;;;;;;27.90;14.20;;;;;;;;;;103948;1289;546376;-75
2023/12/17 18:02:20;;;;;;;26.90;15.30;;;;;;;;;;103910;1290;545702;-73
2023/12/17 18:05:59;;;;;;;27.00;14.00;;;;;;;;;;103799;1293;544782;-72
2023/12/17 18:09:36;;;;;;;23.80;13.00;;;;;;;;;;104124;1289;545219;-72
2023/12/17 18:13:14;;;;;;;32.00;15.70;;;;;;;;;;103896;1291;545043;-72
2023/12/17 18:16:52;;;;;;;21.90;10.60;;;;;;;;;;104262;1286;544812;-73
2023/12/17 18:20:28;;;;;;;68.00;33.20;;;;;;;;;;103714;1291;545024;-71
2023/12/17 18:24:25;;;;;;;33.00;18.20;;;;;;;;;;103599;1301;545552;-77
2023/12/17 18:27:43;;;;;;;29.70;16.60;;;;;;;;;;103830;1291;545950;-72
2023/12/17 18:31:21;;;;;;;35.60;21.10;;;;;;;;;;103770;1292;545958;-71
2023/12/17 18:34:58;;;;;;;40.70;20.20;;;;;;;;;;103846;1290;544850;-72
2023/12/17 18:38:41;;;;;;;40.00;19.90;;;;;;;;;;103732;1302;544964;-74
2023/12/17 18:42:12;;;;;;;36.00;19.50;;;;;;;;;;103807;1291;544756;-76
2023/12/17 18:45:46;;;;;;;33.80;19.40;;;;;;;;;;103812;1298;545058;-71
2023/12/17 18:49:28;;;;;;;36.90;18.60;;;;;;;;;;103857;1292;544977;-71
2023/12/17 18:53:06;;;;;;;32.40;15.80;;;;;;;;;;103811;1292;545109;-73
2023/12/17 18:56:43;;;;;;;26.20;13.90;;;;;;;;;;103835;1289;545885;-73
2023/12/17 19:00:20;;;;;;;23.20;12.90;;;;;;;;;;103785;1304;544967;-74
2023/12/17 19:03:58;;;;;;;22.00;11.40;;;;;;;;;;103929;1289;544795;-71
2023/12/17 19:07:35;;;;;;;22.10;12.00;;;;;;;;;;103856;1292;545030;-72
2023/12/17 19:11:13;;;;;;;18.90;11.60;;;;;;;;;;104087;1290;545721;-71
2023/12/17 19:14:50;;;;;;;21.90;14.80;;;;;;;;;;103956;1291;544877;-76
2023/12/17 19:18:28;;;;;;;18.60;11.90;;;;;;;;;;103872;1295;545303;-71
2023/12/17 19:22:05;;;;;;;21.30;12.50;;;;;;;;;;104182;1286;545005;-73
2023/12/17 19:25:43;;;;;;;16.10;8.30;;;;;;;;;;103829;1294;544852;-71
2023/12/17 19:29:20;;;;;;;20.50;10.80;;;;;;;;;;103951;1289;544764;-71
2023/12/17 19:33:01;;;;;;;22.60;12.60;;;;;;;;;;104146;1288;545604;-71
2023/12/17 19:36:35;;;;;;;21.80;11.50;;;;;;;;;;103830;1293;545115;-71
2023/12/17 19:40:13;;;;;;;19.10;9.10;;;;;;;;;;103938;1295;545935;-69
2023/12/17 19:43:50;;;;;;;17.10;8.10;;;;;;;;;;103737;1295;545156;-71
2023/12/17 19:47:27;;;;;;;17.30;8.70;;;;;;;;;;104100;1286;545529;-71
2023/12/17 19:51:05;;;;;;;21.30;10.10;;;;;;;;;;103880;1295;545066;-73
2023/12/17 19:54:39;;;;;;;22.90;11.90;;;;;;;;;;104150;1288;545017;-82
2023/12/17 19:58:20;;;;;;;19.70;9.30;;;;;;;;;;103864;1291;545532;-72
2023/12/17 20:01:59;;;;;;;18.80;8.90;;;;;;;;;;103958;1295;545447;-70
2023/12/17 20:05:35;;;;;;;22.70;12.20;;;;;;;;;;103967;1289;545346;-71
2023/12/17 20:09:08;;;;;;;45.20;24.90;;;;;;;;;;104243;1289;544897;-74
2023/12/17 20:12:51;;;;;;;69.50;33.40;;;;;;;;;;104009;1289;545400;-77
2023/12/17 20:16:31;;;;;;;75.70;38.20;;;;;;;;;;103808;1292;545579;-72
2023/12/17 20:20:08;;;;;;;193.40;99.60;;;;;;;;;;103943;1291;545230;-71
2023/12/17 20:23:42;;;;;;;41.10;22.40;;;;;;;;;;103685;1297;544718;-70
2023/12/17 20:27:20;;;;;;;32.00;19.10;;;;;;;;;;104131;1288;545396;-75
2023/12/17 20:30:57;;;;;;;25.70;16.00;;;;;;;;;;103903;1291;545254;-71
2023/12/17 20:34:35;;;;;;;43.20;28.10;;;;;;;;;;103807;1291;544995;-74
2023/12/17 20:38:13;;;;;;;47.30;28.80;;;;;;;;;;104090;1292;546012;-71